sensor_id;sensor_type;location;lat;lon;timestamp;temperature;humidity
66096;SHT31;53861;53.422;14.530;2023-04-15T00:01:00;9.97;89.06
66096;SHT31;53861;53.422;14.530;2023-04-15T00:03:28;10.00;88.74
66096;SHT31;53861;53.422;14.530;2023-04-15T00:05:57;10.01;88.56
66096;SHT31;53861;53.422;14.530;2023-04-15T00:08:25;10.06;88.48
66096;SHT31;53861;53.422;14.530;2023-04-15T00:10:52;10.10;88.38
66096;SHT31;53861;53.422;14.530;2023-04-15T00:13:19;10.10;88.49
66096;SHT31;53861;53.422;14.530;2023-04-15T00:15:46;10.11;88.27
66096;SHT31;53861;53.422;14.530;2023-04-15T00:18:14;10.08;88.24
66096;SHT31;53861;53.422;14.530;2023-04-15T00:20:41;10.07;88.33
66096;SHT31;53861;53.422;14.530;2023-04-15T00:23:10;10.04;88.02
66096;SHT31;53861;53.422;14.530;2023-04-15T00:25:37;10.08;87.95
66096;SHT31;53861;53.422;14.530;2023-04-15T00:28:04;10.04;87.94
66096;SHT31;53861;53.422;14.530;2023-04-15T00:30:32;9.97;87.81
66096;SHT31;53861;53.422;14.530;2023-04-15T00:32:59;10.10;87.64
66096;SHT31;53861;53.422;14.530;2023-04-15T00:35:28;10.10;87.50
66096;SHT31;53861;53.422;14.530;2023-04-15T00:37:57;10.04;87.50
66096;SHT31;53861;53.422;14.530;2023-04-15T00:40:26;9.98;87.64
66096;SHT31;53861;53.422;14.530;2023-04-15T00:42:53;9.87;87.82
66096;SHT31;53861;53.422;14.530;2023-04-15T00:45:20;9.86;87.93
66096;SHT31;53861;53.422;14.530;2023-04-15T00:47:48;9.90;87.91
66096;SHT31;53861;53.422;14.530;2023-04-15T00:50:16;9.80;88.05
66096;SHT31;53861;53.422;14.530;2023-04-15T00:52:44;9.73;88.15
66096;SHT31;53861;53.422;14.530;2023-04-15T00:55:11;9.70;88.33
66096;SHT31;53861;53.422;14.530;2023-04-15T00:57:40;9.56;88.94
66096;SHT31;53861;53.422;14.530;2023-04-15T01:00:08;9.50;88.69
66096;SHT31;53861;53.422;14.530;2023-04-15T01:02:37;9.49;88.80
66096;SHT31;53861;53.422;14.530;2023-04-15T01:05:04;9.55;88.88
66096;SHT31;53861;53.422;14.530;2023-04-15T01:07:32;9.55;88.76
66096;SHT31;53861;53.422;14.530;2023-04-15T01:09:59;9.50;88.82
66096;SHT31;53861;53.422;14.530;2023-04-15T01:12:27;9.39;89.10
66096;SHT31;53861;53.422;14.530;2023-04-15T01:14:56;9.49;89.18
66096;SHT31;53861;53.422;14.530;2023-04-15T01:17:24;9.36;89.27
66096;SHT31;53861;53.422;14.530;2023-04-15T01:19:51;9.38;89.46
66096;SHT31;53861;53.422;14.530;2023-04-15T01:22:19;9.35;89.39
66096;SHT31;53861;53.422;14.530;2023-04-15T01:24:54;9.47;89.09
66096;SHT31;53861;53.422;14.530;2023-04-15T01:27:24;9.60;88.52
66096;SHT31;53861;53.422;14.530;2023-04-15T01:29:52;9.49;88.80
66096;SHT31;53861;53.422;14.530;2023-04-15T01:32:19;9.39;88.91
66096;SHT31;53861;53.422;14.530;2023-04-15T01:34:46;9.36;89.02
66096;SHT31;53861;53.422;14.530;2023-04-15T01:37:14;9.32;89.33
66096;SHT31;53861;53.422;14.530;2023-04-15T01:39:41;9.29;89.25
66096;SHT31;53861;53.422;14.530;2023-04-15T01:42:09;9.32;89.45
66096;SHT31;53861;53.422;14.530;2023-04-15T01:44:37;9.25;89.63
66096;SHT31;53861;53.422;14.530;2023-04-15T01:47:05;9.19;89.43
66096;SHT31;53861;53.422;14.530;2023-04-15T01:49:33;9.18;89.61
66096;SHT31;53861;53.422;14.530;2023-04-15T01:52:00;9.19;89.42
66096;SHT31;53861;53.422;14.530;2023-04-15T01:54:28;9.23;89.45
66096;SHT31;53861;53.422;14.530;2023-04-15T01:56:55;9.18;89.99
66096;SHT31;53861;53.422;14.530;2023-04-15T01:59:22;9.10;89.94
66096;SHT31;53861;53.422;14.530;2023-04-15T02:01:51;9.14;89.76
66096;SHT31;53861;53.422;14.530;2023-04-15T02:04:19;9.12;89.46
66096;SHT31;53861;53.422;14.530;2023-04-15T02:06:46;9.07;89.89
66096;SHT31;53861;53.422;14.530;2023-04-15T02:09:13;9.12;89.58
66096;SHT31;53861;53.422;14.530;2023-04-15T02:11:41;9.14;89.49
66096;SHT31;53861;53.422;14.530;2023-04-15T02:14:08;9.18;89.40
66096;SHT31;53861;53.422;14.530;2023-04-15T02:16:35;9.12;89.32
66096;SHT31;53861;53.422;14.530;2023-04-15T02:19:04;9.15;89.28
66096;SHT31;53861;53.422;14.530;2023-04-15T02:21:31;9.11;89.41
66096;SHT31;53861;53.422;14.530;2023-04-15T02:24:00;9.07;89.74
66096;SHT31;53861;53.422;14.530;2023-04-15T02:26:29;8.97;89.79
66096;SHT31;53861;53.422;14.530;2023-04-15T02:28:57;8.94;89.86
66096;SHT31;53861;53.422;14.530;2023-04-15T02:31:24;8.94;89.67
66096;SHT31;53861;53.422;14.530;2023-04-15T02:33:52;8.89;89.86
66096;SHT31;53861;53.422;14.530;2023-04-15T02:36:20;8.88;89.88
66096;SHT31;53861;53.422;14.530;2023-04-15T02:38:48;8.84;89.90
66096;SHT31;53861;53.422;14.530;2023-04-15T02:41:16;8.84;89.82
66096;SHT31;53861;53.422;14.530;2023-04-15T02:43:43;8.78;90.56
66096;SHT31;53861;53.422;14.530;2023-04-15T02:46:11;8.78;89.86
66096;SHT31;53861;53.422;14.530;2023-04-15T02:48:39;8.77;89.91
66096;SHT31;53861;53.422;14.530;2023-04-15T02:51:14;8.72;90.09
66096;SHT31;53861;53.422;14.530;2023-04-15T02:53:43;8.72;90.33
66096;SHT31;53861;53.422;14.530;2023-04-15T02:56:10;8.67;90.47
66096;SHT31;53861;53.422;14.530;2023-04-15T02:58:38;8.65;90.23
66096;SHT31;53861;53.422;14.530;2023-04-15T03:01:05;8.68;90.12
66096;SHT31;53861;53.422;14.530;2023-04-15T03:03:33;8.71;89.89
66096;SHT31;53861;53.422;14.530;2023-04-15T03:06:01;8.75;89.89
66096;SHT31;53861;53.422;14.530;2023-04-15T03:08:28;8.67;89.91
66096;SHT31;53861;53.422;14.530;2023-04-15T03:10:58;8.64;90.01
66096;SHT31;53861;53.422;14.530;2023-04-15T03:13:27;8.67;89.71
66096;SHT31;53861;53.422;14.530;2023-04-15T03:15:54;8.67;89.90
66096;SHT31;53861;53.422;14.530;2023-04-15T03:18:22;8.63;89.74
66096;SHT31;53861;53.422;14.530;2023-04-15T03:20:49;8.61;89.73
66096;SHT31;53861;53.422;14.530;2023-04-15T03:23:16;8.53;90.44
66096;SHT31;53861;53.422;14.530;2023-04-15T03:25:44;8.41;90.12
66096;SHT31;53861;53.422;14.530;2023-04-15T03:28:13;8.36;90.30
66096;SHT31;53861;53.422;14.530;2023-04-15T03:30:40;8.34;90.45
66096;SHT31;53861;53.422;14.530;2023-04-15T03:33:08;8.37;91.09
66096;SHT31;53861;53.422;14.530;2023-04-15T03:35:35;8.30;90.83
66096;SHT31;53861;53.422;14.530;2023-04-15T03:38:03;8.30;90.64
66096;SHT31;53861;53.422;14.530;2023-04-15T03:40:30;8.28;90.67
66096;SHT31;53861;53.422;14.530;2023-04-15T03:42:57;8.28;90.73
66096;SHT31;53861;53.422;14.530;2023-04-15T03:45:26;8.30;90.94
66096;SHT31;53861;53.422;14.530;2023-04-15T03:47:53;8.29;90.81
66096;SHT31;53861;53.422;14.530;2023-04-15T03:50:20;8.36;90.44
66096;SHT31;53861;53.422;14.530;2023-04-15T03:52:47;8.39;90.32
66096;SHT31;53861;53.422;14.530;2023-04-15T03:55:15;8.40;90.27
66096;SHT31;53861;53.422;14.530;2023-04-15T03:57:42;8.46;89.39
66096;SHT31;53861;53.422;14.530;2023-04-15T04:00:10;8.49;89.69
66096;SHT31;53861;53.422;14.530;2023-04-15T04:02:39;8.53;89.58
66096;SHT31;53861;53.422;14.530;2023-04-15T04:05:06;8.54;89.35
66096;SHT31;53861;53.422;14.530;2023-04-15T04:07:34;8.54;89.46
66096;SHT31;53861;53.422;14.530;2023-04-15T04:10:01;8.65;89.07
66096;SHT31;53861;53.422;14.530;2023-04-15T04:12:29;8.61;89.09
66096;SHT31;53861;53.422;14.530;2023-04-15T04:14:57;8.61;89.01
66096;SHT31;53861;53.422;14.530;2023-04-15T04:17:24;8.61;88.85
66096;SHT31;53861;53.422;14.530;2023-04-15T04:19:52;8.61;88.85
66096;SHT31;53861;53.422;14.530;2023-04-15T04:22:21;8.59;88.73
66096;SHT31;53861;53.422;14.530;2023-04-15T04:24:49;8.64;88.74
66096;SHT31;53861;53.422;14.530;2023-04-15T04:27:16;8.64;88.64
66096;SHT31;53861;53.422;14.530;2023-04-15T04:29:44;8.70;88.32
66096;SHT31;53861;53.422;14.530;2023-04-15T04:32:12;8.72;89.15
66096;SHT31;53861;53.422;14.530;2023-04-15T04:34:39;8.72;88.94
66096;SHT31;53861;53.422;14.530;2023-04-15T04:37:08;8.80;88.30
66096;SHT31;53861;53.422;14.530;2023-04-15T04:39:36;8.91;88.19
66096;SHT31;53861;53.422;14.530;2023-04-15T04:42:03;8.95;88.38
66096;SHT31;53861;53.422;14.530;2023-04-15T04:44:30;8.91;88.29
66096;SHT31;53861;53.422;14.530;2023-04-15T04:46:58;9.07;87.87
66096;SHT31;53861;53.422;14.530;2023-04-15T04:49:25;9.18;87.07
66096;SHT31;53861;53.422;14.530;2023-04-15T04:51:52;9.29;86.81
66096;SHT31;53861;53.422;14.530;2023-04-15T04:54:21;9.32;86.71
66096;SHT31;53861;53.422;14.530;2023-04-15T04:56:48;9.36;86.69
66096;SHT31;53861;53.422;14.530;2023-04-15T04:59:16;9.40;87.21
66096;SHT31;53861;53.422;14.530;2023-04-15T05:01:43;9.39;86.42
66096;SHT31;53861;53.422;14.530;2023-04-15T05:04:10;9.46;86.70
66096;SHT31;53861;53.422;14.530;2023-04-15T05:06:38;9.53;86.58
66096;SHT31;53861;53.422;14.530;2023-04-15T05:09:05;9.62;86.03
66096;SHT31;53861;53.422;14.530;2023-04-15T05:11:34;9.67;85.82
66096;SHT31;53861;53.422;14.530;2023-04-15T05:14:01;9.83;84.81
66096;SHT31;53861;53.422;14.530;2023-04-15T05:16:28;9.97;84.23
66096;SHT31;53861;53.422;14.530;2023-04-15T05:18:56;10.17;83.56
66096;SHT31;53861;53.422;14.530;2023-04-15T05:21:23;10.30;82.84
66096;SHT31;53861;53.422;14.530;2023-04-15T05:23:51;10.21;82.63
66096;SHT31;53861;53.422;14.530;2023-04-15T05:26:18;10.34;83.38
66096;SHT31;53861;53.422;14.530;2023-04-15T05:28:47;10.47;82.86
66096;SHT31;53861;53.422;14.530;2023-04-15T05:31:15;10.57;82.89
66096;SHT31;53861;53.422;14.530;2023-04-15T05:33:42;10.68;82.66
66096;SHT31;53861;53.422;14.530;2023-04-15T05:36:10;10.71;83.06
66096;SHT31;53861;53.422;14.530;2023-04-15T05:38:37;10.71;83.43
66096;SHT31;53861;53.422;14.530;2023-04-15T05:41:04;10.83;82.70
66096;SHT31;53861;53.422;14.530;2023-04-15T05:43:32;10.85;82.77
66096;SHT31;53861;53.422;14.530;2023-04-15T05:46:00;10.98;82.69
66096;SHT31;53861;53.422;14.530;2023-04-15T05:48:28;11.19;81.09
66096;SHT31;53861;53.422;14.530;2023-04-15T05:50:55;11.20;80.59
66096;SHT31;53861;53.422;14.530;2023-04-15T05:53:22;11.09;81.92
66096;SHT31;53861;53.422;14.530;2023-04-15T05:55:49;11.03;82.64
66096;SHT31;53861;53.422;14.530;2023-04-15T05:58:17;10.98;83.06
66096;SHT31;53861;53.422;14.530;2023-04-15T06:00:44;11.09;81.66
66096;SHT31;53861;53.422;14.530;2023-04-15T06:03:13;11.12;80.91
66096;SHT31;53861;53.422;14.530;2023-04-15T06:05:41;11.15;80.47
66096;SHT31;53861;53.422;14.530;2023-04-15T06:08:09;11.15;79.93
66096;SHT31;53861;53.422;14.530;2023-04-15T06:10:37;11.10;82.36
66096;SHT31;53861;53.422;14.530;2023-04-15T06:13:04;11.30;81.27
66096;SHT31;53861;53.422;14.530;2023-04-15T06:15:39;11.56;79.58
66096;SHT31;53861;53.422;14.530;2023-04-15T06:18:06;11.64;79.70
66096;SHT31;53861;53.422;14.530;2023-04-15T06:20:34;11.75;80.07
66096;SHT31;53861;53.422;14.530;2023-04-15T06:23:02;12.06;79.18
66096;SHT31;53861;53.422;14.530;2023-04-15T06:25:29;11.95;78.69
66096;SHT31;53861;53.422;14.530;2023-04-15T06:27:57;11.81;80.40
66096;SHT31;53861;53.422;14.530;2023-04-15T06:30:24;11.85;79.85
66096;SHT31;53861;53.422;14.530;2023-04-15T06:32:51;11.61;79.62
66096;SHT31;53861;53.422;14.530;2023-04-15T06:35:18;11.69;79.58
66096;SHT31;53861;53.422;14.530;2023-04-15T06:37:47;11.60;79.38
66096;SHT31;53861;53.422;14.530;2023-04-15T06:40:15;11.40;81.06
66096;SHT31;53861;53.422;14.530;2023-04-15T06:42:42;11.41;81.11
66096;SHT31;53861;53.422;14.530;2023-04-15T06:45:10;11.51;83.34
66096;SHT31;53861;53.422;14.530;2023-04-15T06:47:37;11.41;83.53
66096;SHT31;53861;53.422;14.530;2023-04-15T06:50:06;11.51;81.66
66096;SHT31;53861;53.422;14.530;2023-04-15T06:52:34;11.67;81.43
66096;SHT31;53861;53.422;14.530;2023-04-15T06:55:03;11.70;82.68
66096;SHT31;53861;53.422;14.530;2023-04-15T06:57:30;12.02;79.62
66096;SHT31;53861;53.422;14.530;2023-04-15T06:59:58;12.12;79.81
66096;SHT31;53861;53.422;14.530;2023-04-15T07:02:25;12.05;80.34
66096;SHT31;53861;53.422;14.530;2023-04-15T07:04:53;12.21;79.73
66096;SHT31;53861;53.422;14.530;2023-04-15T07:07:20;12.12;77.96
66096;SHT31;53861;53.422;14.530;2023-04-15T07:09:47;12.24;78.83
66096;SHT31;53861;53.422;14.530;2023-04-15T07:12:16;12.36;79.02
66096;SHT31;53861;53.422;14.530;2023-04-15T07:14:44;12.20;80.65
66096;SHT31;53861;53.422;14.530;2023-04-15T07:17:11;12.31;79.22
66096;SHT31;53861;53.422;14.530;2023-04-15T07:19:38;12.25;79.31
66096;SHT31;53861;53.422;14.530;2023-04-15T07:22:05;12.39;79.44
66096;SHT31;53861;53.422;14.530;2023-04-15T07:24:33;12.52;78.56
66096;SHT31;53861;53.422;14.530;2023-04-15T07:27:00;12.66;77.01
66096;SHT31;53861;53.422;14.530;2023-04-15T07:29:30;12.69;76.53
66096;SHT31;53861;53.422;14.530;2023-04-15T07:31:57;12.60;78.12
66096;SHT31;53861;53.422;14.530;2023-04-15T07:34:24;12.76;76.66
66096;SHT31;53861;53.422;14.530;2023-04-15T07:36:52;12.73;77.50
66096;SHT31;53861;53.422;14.530;2023-04-15T07:39:20;12.82;77.13
66096;SHT31;53861;53.422;14.530;2023-04-15T07:41:47;12.90;76.40
66096;SHT31;53861;53.422;14.530;2023-04-15T07:44:15;12.87;75.67
66096;SHT31;53861;53.422;14.530;2023-04-15T07:46:43;12.72;76.84
66096;SHT31;53861;53.422;14.530;2023-04-15T07:49:10;12.90;76.64
66096;SHT31;53861;53.422;14.530;2023-04-15T07:51:38;13.06;76.10
66096;SHT31;53861;53.422;14.530;2023-04-15T07:54:05;13.21;75.55
66096;SHT31;53861;53.422;14.530;2023-04-15T07:56:32;13.21;76.11
66096;SHT31;53861;53.422;14.530;2023-04-15T07:59:00;13.18;76.14
66096;SHT31;53861;53.422;14.530;2023-04-15T08:01:29;13.26;74.22
66096;SHT31;53861;53.422;14.530;2023-04-15T08:03:59;13.00;75.82
66096;SHT31;53861;53.422;14.530;2023-04-15T08:06:26;12.87;77.05
66096;SHT31;53861;53.422;14.530;2023-04-15T08:08:53;12.94;76.90
66096;SHT31;53861;53.422;14.530;2023-04-15T08:11:21;12.93;77.05
66096;SHT31;53861;53.422;14.530;2023-04-15T08:13:49;12.83;75.44
66096;SHT31;53861;53.422;14.530;2023-04-15T08:16:18;12.83;76.60
66096;SHT31;53861;53.422;14.530;2023-04-15T08:18:45;12.86;76.70
66096;SHT31;53861;53.422;14.530;2023-04-15T08:21:14;12.80;77.09
66096;SHT31;53861;53.422;14.530;2023-04-15T08:23:42;12.90;75.83
66096;SHT31;53861;53.422;14.530;2023-04-15T08:26:09;13.02;75.54
66096;SHT31;53861;53.422;14.530;2023-04-15T08:28:38;13.10;75.51
66096;SHT31;53861;53.422;14.530;2023-04-15T08:31:05;13.23;74.72
66096;SHT31;53861;53.422;14.530;2023-04-15T08:33:34;13.07;76.18
66096;SHT31;53861;53.422;14.530;2023-04-15T08:36:03;12.93;75.30
66096;SHT31;53861;53.422;14.530;2023-04-15T08:38:32;13.03;75.08
66096;SHT31;53861;53.422;14.530;2023-04-15T08:41:03;13.04;76.79
66096;SHT31;53861;53.422;14.530;2023-04-15T08:43:33;13.11;75.60
66096;SHT31;53861;53.422;14.530;2023-04-15T08:46:12;13.20;75.32
66096;SHT31;53861;53.422;14.530;2023-04-15T08:48:41;13.08;75.70
66096;SHT31;53861;53.422;14.530;2023-04-15T08:51:08;13.03;76.62
66096;SHT31;53861;53.422;14.530;2023-04-15T08:53:42;13.06;76.40
66096;SHT31;53861;53.422;14.530;2023-04-15T08:56:12;13.07;76.57
66096;SHT31;53861;53.422;14.530;2023-04-15T08:58:42;13.06;76.18
66096;SHT31;53861;53.422;14.530;2023-04-15T09:01:14;12.89;77.65
66096;SHT31;53861;53.422;14.530;2023-04-15T09:03:41;12.90;76.95
66096;SHT31;53861;53.422;14.530;2023-04-15T09:06:10;13.03;75.81
66096;SHT31;53861;53.422;14.530;2023-04-15T09:08:38;12.97;75.28
66096;SHT31;53861;53.422;14.530;2023-04-15T09:11:07;12.96;75.84
66096;SHT31;53861;53.422;14.530;2023-04-15T09:13:35;13.03;75.93
66096;SHT31;53861;53.422;14.530;2023-04-15T09:16:04;12.93;76.65
66096;SHT31;53861;53.422;14.530;2023-04-15T09:18:34;13.03;76.10
66096;SHT31;53861;53.422;14.530;2023-04-15T09:21:06;13.08;76.34
66096;SHT31;53861;53.422;14.530;2023-04-15T09:23:39;12.96;76.66
66096;SHT31;53861;53.422;14.530;2023-04-15T09:26:08;13.03;76.28
66096;SHT31;53861;53.422;14.530;2023-04-15T09:28:41;13.08;76.00
66096;SHT31;53861;53.422;14.530;2023-04-15T09:31:09;12.90;76.88
66096;SHT31;53861;53.422;14.530;2023-04-15T09:33:53;12.82;77.07
66096;SHT31;53861;53.422;14.530;2023-04-15T09:36:24;12.87;75.70
66096;SHT31;53861;53.422;14.530;2023-04-15T09:38:55;12.84;75.71
66096;SHT31;53861;53.422;14.530;2023-04-15T09:41:27;12.76;76.74
66096;SHT31;53861;53.422;14.530;2023-04-15T09:43:55;12.69;78.81
66096;SHT31;53861;53.422;14.530;2023-04-15T09:46:43;12.67;77.40
66096;SHT31;53861;53.422;14.530;2023-04-15T09:49:13;12.75;77.36
66096;SHT31;53861;53.422;14.530;2023-04-15T09:51:43;12.57;76.74
66096;SHT31;53861;53.422;14.530;2023-04-15T09:54:18;12.75;76.96
66096;SHT31;53861;53.422;14.530;2023-04-15T09:56:47;12.60;76.46
66096;SHT31;53861;53.422;14.530;2023-04-15T09:59:18;12.56;77.37
66096;SHT31;53861;53.422;14.530;2023-04-15T10:01:48;12.56;77.22
66096;SHT31;53861;53.422;14.530;2023-04-15T10:04:18;12.60;76.89
66096;SHT31;53861;53.422;14.530;2023-04-15T10:06:47;12.48;78.06
66096;SHT31;53861;53.422;14.530;2023-04-15T10:09:16;12.50;77.72
66096;SHT31;53861;53.422;14.530;2023-04-15T10:11:46;12.50;77.73
66096;SHT31;53861;53.422;14.530;2023-04-15T10:14:17;12.53;77.55
66096;SHT31;53861;53.422;14.530;2023-04-15T10:16:49;12.59;76.73
66096;SHT31;53861;53.422;14.530;2023-04-15T10:19:24;12.49;77.01
66096;SHT31;53861;53.422;14.530;2023-04-15T10:21:54;12.55;76.54
66096;SHT31;53861;53.422;14.530;2023-04-15T10:24:21;12.49;77.66
66096;SHT31;53861;53.422;14.530;2023-04-15T10:26:51;12.49;77.38
66096;SHT31;53861;53.422;14.530;2023-04-15T10:29:22;12.55;76.66
66096;SHT31;53861;53.422;14.530;2023-04-15T10:31:51;12.42;77.07
66096;SHT31;53861;53.422;14.530;2023-04-15T10:34:23;12.31;77.58
66096;SHT31;53861;53.422;14.530;2023-04-15T10:36:51;12.36;77.86
66096;SHT31;53861;53.422;14.530;2023-04-15T10:39:41;12.39;77.92
66096;SHT31;53861;53.422;14.530;2023-04-15T10:42:11;12.38;77.83
66096;SHT31;53861;53.422;14.530;2023-04-15T10:44:41;12.43;77.71
66096;SHT31;53861;53.422;14.530;2023-04-15T10:47:11;12.36;79.57
66096;SHT31;53861;53.422;14.530;2023-04-15T10:49:48;12.31;78.93
66096;SHT31;53861;53.422;14.530;2023-04-15T10:52:17;12.39;78.36
66096;SHT31;53861;53.422;14.530;2023-04-15T10:54:48;12.43;78.51
66096;SHT31;53861;53.422;14.530;2023-04-15T10:57:22;12.41;78.50
66096;SHT31;53861;53.422;14.530;2023-04-15T11:00:01;12.41;77.43
66096;SHT31;53861;53.422;14.530;2023-04-15T11:02:38;12.43;77.11
66096;SHT31;53861;53.422;14.530;2023-04-15T11:05:06;12.48;77.07
66096;SHT31;53861;53.422;14.530;2023-04-15T11:07:35;12.36;78.70
66096;SHT31;53861;53.422;14.530;2023-04-15T11:13:26;12.48;78.40
66096;SHT31;53861;53.422;14.530;2023-04-15T11:16:01;12.39;77.63
66096;SHT31;53861;53.422;14.530;2023-04-15T11:18:30;12.39;79.61
66096;SHT31;53861;53.422;14.530;2023-04-15T11:20:59;12.42;79.64
66096;SHT31;53861;53.422;14.530;2023-04-15T11:23:32;12.55;78.80
66096;SHT31;53861;53.422;14.530;2023-04-15T11:26:00;12.60;77.08
66096;SHT31;53861;53.422;14.530;2023-04-15T11:28:32;12.50;78.21
66096;SHT31;53861;53.422;14.530;2023-04-15T11:31:08;12.35;78.30
66096;SHT31;53861;53.422;14.530;2023-04-15T11:33:44;12.55;77.70
66096;SHT31;53861;53.422;14.530;2023-04-15T11:36:13;12.41;79.29
66096;SHT31;53861;53.422;14.530;2023-04-15T11:38:44;12.56;77.42
66096;SHT31;53861;53.422;14.530;2023-04-15T11:41:19;12.50;77.89
66096;SHT31;53861;53.422;14.530;2023-04-15T11:43:48;12.41;78.58
66096;SHT31;53861;53.422;14.530;2023-04-15T11:46:15;12.43;78.84
66096;SHT31;53861;53.422;14.530;2023-04-15T11:48:44;12.46;78.97
66096;SHT31;53861;53.422;14.530;2023-04-15T11:51:13;12.41;78.77
66096;SHT31;53861;53.422;14.530;2023-04-15T11:53:42;12.20;79.80
66096;SHT31;53861;53.422;14.530;2023-04-15T11:56:10;12.21;80.22
66096;SHT31;53861;53.422;14.530;2023-04-15T11:58:37;12.11;81.24
66096;SHT31;53861;53.422;14.530;2023-04-15T12:01:06;12.11;81.53
66096;SHT31;53861;53.422;14.530;2023-04-15T12:03:38;12.06;82.04
66096;SHT31;53861;53.422;14.530;2023-04-15T12:06:13;12.12;81.49
66096;SHT31;53861;53.422;14.530;2023-04-15T12:11:35;12.20;81.26
66096;SHT31;53861;53.422;14.530;2023-04-15T12:14:05;12.31;80.40
66096;SHT31;53861;53.422;14.530;2023-04-15T12:16:35;12.29;80.48
66096;SHT31;53861;53.422;14.530;2023-04-15T12:19:05;12.36;80.43
66096;SHT31;53861;53.422;14.530;2023-04-15T12:21:35;12.32;80.85
66096;SHT31;53861;53.422;14.530;2023-04-15T12:24:04;12.29;80.07
66096;SHT31;53861;53.422;14.530;2023-04-15T12:26:36;12.38;79.38
66096;SHT31;53861;53.422;14.530;2023-04-15T12:29:05;12.43;79.24
66096;SHT31;53861;53.422;14.530;2023-04-15T12:31:35;12.42;78.59
66096;SHT31;53861;53.422;14.530;2023-04-15T12:34:03;12.38;79.19
66096;SHT31;53861;53.422;14.530;2023-04-15T12:36:33;12.41;78.86
66096;SHT31;53861;53.422;14.530;2023-04-15T12:39:02;12.52;78.59
66096;SHT31;53861;53.422;14.530;2023-04-15T12:41:30;12.52;78.39
66096;SHT31;53861;53.422;14.530;2023-04-15T12:43:57;12.50;79.53
66096;SHT31;53861;53.422;14.530;2023-04-15T12:46:25;12.59;78.57
66096;SHT31;53861;53.422;14.530;2023-04-15T12:48:55;12.73;77.04
66096;SHT31;53861;53.422;14.530;2023-04-15T12:51:23;12.80;76.25
66096;SHT31;53861;53.422;14.530;2023-04-15T12:53:52;12.65;77.14
66096;SHT31;53861;53.422;14.530;2023-04-15T12:56:19;12.84;76.37
66096;SHT31;53861;53.422;14.530;2023-04-15T12:58:50;12.84;77.62
66096;SHT31;53861;53.422;14.530;2023-04-15T13:01:17;12.83;77.63
66096;SHT31;53861;53.422;14.530;2023-04-15T13:03:44;12.79;77.54
66096;SHT31;53861;53.422;14.530;2023-04-15T13:06:14;12.92;77.55
66096;SHT31;53861;53.422;14.530;2023-04-15T13:08:41;12.94;76.71
66096;SHT31;53861;53.422;14.530;2023-04-15T13:11:09;12.89;75.99
66096;SHT31;53861;53.422;14.530;2023-04-15T13:13:36;12.94;76.68
66096;SHT31;53861;53.422;14.530;2023-04-15T13:16:04;12.89;76.69
66096;SHT31;53861;53.422;14.530;2023-04-15T13:18:31;12.89;76.97
66096;SHT31;53861;53.422;14.530;2023-04-15T13:21:00;12.93;76.15
66096;SHT31;53861;53.422;14.530;2023-04-15T13:23:29;12.79;76.51
66096;SHT31;53861;53.422;14.530;2023-04-15T13:25:56;12.73;76.55
66096;SHT31;53861;53.422;14.530;2023-04-15T13:28:23;12.62;77.70
66096;SHT31;53861;53.422;14.530;2023-04-15T13:30:51;12.55;79.12
66096;SHT31;53861;53.422;14.530;2023-04-15T13:33:18;12.55;78.59
66096;SHT31;53861;53.422;14.530;2023-04-15T13:35:45;12.66;77.73
66096;SHT31;53861;53.422;14.530;2023-04-15T13:38:13;12.70;76.47
66096;SHT31;53861;53.422;14.530;2023-04-15T13:40:41;12.77;76.09
66096;SHT31;53861;53.422;14.530;2023-04-15T13:43:09;12.77;76.59
66096;SHT31;53861;53.422;14.530;2023-04-15T13:45:36;12.73;76.70
66096;SHT31;53861;53.422;14.530;2023-04-15T13:48:03;12.70;76.88
66096;SHT31;53861;53.422;14.530;2023-04-15T13:50:31;12.69;77.89
66096;SHT31;53861;53.422;14.530;2023-04-15T13:52:58;12.59;77.73
66096;SHT31;53861;53.422;14.530;2023-04-15T13:55:25;12.62;77.32
66096;SHT31;53861;53.422;14.530;2023-04-15T13:57:55;12.59;77.75
66096;SHT31;53861;53.422;14.530;2023-04-15T14:00:22;12.60;77.11
66096;SHT31;53861;53.422;14.530;2023-04-15T14:02:49;12.59;78.07
66096;SHT31;53861;53.422;14.530;2023-04-15T14:05:17;12.63;77.47
66096;SHT31;53861;53.422;14.530;2023-04-15T14:07:44;12.69;76.70
66096;SHT31;53861;53.422;14.530;2023-04-15T14:10:11;12.60;77.16
66096;SHT31;53861;53.422;14.530;2023-04-15T14:12:38;12.60;77.74
66096;SHT31;53861;53.422;14.530;2023-04-15T14:15:08;12.55;77.70
66096;SHT31;53861;53.422;14.530;2023-04-15T14:17:35;12.72;76.86
66096;SHT31;53861;53.422;14.530;2023-04-15T14:20:06;12.59;76.88
66096;SHT31;53861;53.422;14.530;2023-04-15T14:22:33;12.53;78.02
66096;SHT31;53861;53.422;14.530;2023-04-15T14:25:01;12.63;77.52
66096;SHT31;53861;53.422;14.530;2023-04-15T14:27:28;12.59;77.54
66096;SHT31;53861;53.422;14.530;2023-04-15T14:29:56;12.57;78.19
66096;SHT31;53861;53.422;14.530;2023-04-15T14:32:25;12.67;77.51
66096;SHT31;53861;53.422;14.530;2023-04-15T14:34:52;12.63;77.09
66096;SHT31;53861;53.422;14.530;2023-04-15T14:37:20;12.59;77.22
66096;SHT31;53861;53.422;14.530;2023-04-15T14:39:47;12.57;77.42
66096;SHT31;53861;53.422;14.530;2023-04-15T14:42:14;12.62;77.27
66096;SHT31;53861;53.422;14.530;2023-04-15T14:44:41;12.62;77.76
66096;SHT31;53861;53.422;14.530;2023-04-15T14:47:09;12.63;77.30
66096;SHT31;53861;53.422;14.530;2023-04-15T14:49:38;12.56;77.92
66096;SHT31;53861;53.422;14.530;2023-04-15T14:52:05;12.52;77.79
66096;SHT31;53861;53.422;14.530;2023-04-15T14:54:33;12.55;77.95
66096;SHT31;53861;53.422;14.530;2023-04-15T14:57:00;12.52;78.25
66096;SHT31;53861;53.422;14.530;2023-04-15T14:59:27;12.53;77.81
66096;SHT31;53861;53.422;14.530;2023-04-15T15:01:55;12.62;77.48
66096;SHT31;53861;53.422;14.530;2023-04-15T15:04:23;12.63;77.77
66096;SHT31;53861;53.422;14.530;2023-04-15T15:06:52;12.60;78.01
66096;SHT31;53861;53.422;14.530;2023-04-15T15:09:19;12.59;78.12
66096;SHT31;53861;53.422;14.530;2023-04-15T15:11:48;12.53;78.66
66096;SHT31;53861;53.422;14.530;2023-04-15T15:14:15;12.53;78.98
66096;SHT31;53861;53.422;14.530;2023-04-15T15:16:43;12.50;79.16
66096;SHT31;53861;53.422;14.530;2023-04-15T15:19:10;12.49;79.41
66096;SHT31;53861;53.422;14.530;2023-04-15T15:21:37;12.48;79.00
66096;SHT31;53861;53.422;14.530;2023-04-15T15:24:06;12.39;79.40
66096;SHT31;53861;53.422;14.530;2023-04-15T15:26:33;12.41;79.75
66096;SHT31;53861;53.422;14.530;2023-04-15T15:29:00;12.46;79.59
66096;SHT31;53861;53.422;14.530;2023-04-15T15:31:28;12.46;79.76
66096;SHT31;53861;53.422;14.530;2023-04-15T15:33:55;12.53;79.33